Time;durP1;ratioP1;P1;durP2;ratioP2;P2;SDS_P1;SDS_P2;PMS_P1;PMS_P2;Temp;Humidity;BMP_temperature;BMP_pressure;BME280_temperature;BME280_humidity;BME280_pressure;Samples;Min_cycle;Max_cycle;Signal;HPM_P1;HPM_P2
2023/07/11 00:00:10;;;;;;;;;;;;;;;;;;5045552;28;5113;-70
2023/07/11 00:02:35;;;;;;;;;;;;;;;;;;5044132;28;5141;-70
2023/07/11 00:05:00;;;;;;;;;;;;;;;;;;5043827;28;5250;-70
2023/07/11 00:07:26;;;;;;;;;;;;;;;;;;5043302;28;5055;-70
2023/07/11 00:09:51;;;;;;;;;;;;;;;;;;5043943;28;2645;-70
2023/07/11 00:12:16;;;;;;;;;;;;;;;;;;5043106;28;4620;-71
2023/07/11 00:14:42;;;;;;;;;;;;;;;;;;5044551;28;5597;-72
2023/07/11 00:17:07;;;;;;;;;;;;;;;;;;5043450;28;4653;-70
2023/07/11 00:19:46;;;;;;;;;;;;;;;;;;5057651;28;5119;-69
2023/07/11 00:22:11;;;;;;;;;;;;;;;;;;5040019;28;5179;-69
2023/07/11 00:24:36;;;;;;;;;;;;;;;;;;5046434;28;1974;-70
2023/07/11 00:27:01;;;;;;;;;;;;;;;;;;5029289;28;4471;-70
2023/07/11 00:29:27;;;;;;;;;;;;;;;;;;5043265;28;5455;-70
2023/07/11 00:31:52;;;;;;;;;;;;;;;;;;5044669;28;5283;-70
2023/07/11 00:34:17;;;;;;;;;;;;;;;;;;5045245;28;5050;-69
2023/07/11 00:36:42;;;;;;;;;;;;;;;;;;5042696;28;1508;-74
2023/07/11 00:39:08;;;;;;;;;;;;;;;;;;5044201;28;4984;-57
2023/07/11 00:41:33;;;;;;;;;;;;;;;;;;5044973;28;4940;-58
2023/07/11 00:43:58;;;;;;;;;;;;;;;;;;5047470;28;4727;-57
2023/07/11 00:46:23;;;;;;;;;;;;;;;;;;5027840;28;4668;-57
2023/07/11 00:48:50;;;;;;;;;;;;;;;;;;5050078;28;1681;-58
2023/07/11 00:51:20;;;;;;;;;;;;;;;;;;5030194;28;4892;-58
2023/07/11 00:53:45;;;;;;;;;;;;;;;;;;5062583;28;4577;-57
2023/07/11 00:56:11;;;;;;;;;;;;;;;;;;5045878;28;5037;-57
2023/07/11 00:58:37;;;;;;;;;;;;;;;;;;5063688;28;5001;-56
2023/07/11 01:01:02;;;;;;;;;;;;;;;;;;5049275;28;1397;-58
2023/07/11 01:03:27;;;;;;;;;;;;;;;;;;5046511;28;5025;-56
2023/07/11 01:05:56;;;;;;;;;;;;;;;;;;5049155;28;4490;-58
2023/07/11 01:08:21;;;;;;;;;;;;;;;;;;5040529;28;5594;-58
2023/07/11 01:10:47;;;;;;;;;;;;;;;;;;5048895;28;4506;-57
2023/07/11 01:13:12;;;;;;;;;;;;;;;;;;5046101;28;5645;-58
2023/07/11 01:15:37;;;;;;;;;;;;;;;;;;5046715;28;1528;-58
2023/07/11 01:18:02;;;;;;;;;;;;;;;;;;5049133;28;4968;-58
2023/07/11 01:20:28;;;;;;;;;;;;;;;;;;5048310;28;5271;-57
2023/07/11 01:22:55;;;;;;;;;;;;;;;;;;5044539;28;5217;-58
2023/07/11 01:25:20;;;;;;;;;;;;;;;;;;5048322;28;5147;-57
2023/07/11 01:27:46;;;;;;;;;;;;;;;;;;5046347;28;1369;-57
2023/07/11 01:30:13;;;;;;;;;;;;;;;;;;5028921;28;5000;-57
2023/07/11 01:32:39;;;;;;;;;;;;;;;;;;5060018;28;5018;-57
2023/07/11 01:35:04;;;;;;;;;;;;;;;;;;5049698;28;4648;-57
2023/07/11 01:37:30;;;;;;;;;;;;;;;;;;5044513;28;5008;-57
2023/07/11 01:39:55;;;;;;;;;;;;;;;;;;5044047;28;1553;-57
2023/07/11 01:42:20;;;;;;;;;;;;;;;;;;5048203;28;4809;-57
2023/07/11 01:44:45;;;;;;;;;;;;;;;;;;5031383;28;5131;-55
2023/07/11 01:47:11;;;;;;;;;;;;;;;;;;5040843;28;5204;-57
2023/07/11 01:49:36;;;;;;;;;;;;;;;;;;5049132;28;5151;-57
2023/07/11 01:52:05;;;;;;;;;;;;;;;;;;5046904;28;1611;-57
2023/07/11 01:54:31;;;;;;;;;;;;;;;;;;5047883;28;4876;-56
2023/07/11 01:56:56;;;;;;;;;;;;;;;;;;5047709;28;4456;-57
2023/07/11 01:59:21;;;;;;;;;;;;;;;;;;5046858;28;4509;-57
2023/07/11 02:01:46;;;;;;;;;;;;;;;;;;5042988;28;5054;-56
2023/07/11 02:04:12;;;;;;;;;;;;;;;;;;5024385;28;5058;-57
2023/07/11 02:06:37;;;;;;;;;;;;;;;;;;5026939;28;1415;-56
2023/07/11 02:09:02;;;;;;;;;;;;;;;;;;5024390;28;5090;-57
2023/07/11 02:11:28;;;;;;;;;;;;;;;;;;5020062;28;5011;-58
2023/07/11 02:13:53;;;;;;;;;;;;;;;;;;5024907;28;4886;-57
2023/07/11 02:16:18;;;;;;;;;;;;;;;;;;5020580;28;5023;-57
2023/07/11 02:18:43;;;;;;;;;;;;;;;;;;5027362;28;1499;-56
2023/07/11 02:21:09;;;;;;;;;;;;;;;;;;5021182;28;4973;-57
2023/07/11 02:23:34;;;;;;;;;;;;;;;;;;5024003;28;5583;-57
2023/07/11 02:25:59;;;;;;;;;;;;;;;;;;5023866;28;4502;-58
2023/07/11 02:28:24;;;;;;;;;;;;;;;;;;5023194;28;4898;-57
2023/07/11 02:30:50;;;;;;;;;;;;;;;;;;5021109;28;1146;-57
2023/07/11 02:33:15;;;;;;;;;;;;;;;;;;5021142;28;4491;-57
2023/07/11 02:35:40;;;;;;;;;;;;;;;;;;5023214;28;5018;-57
2023/07/11 02:38:06;;;;;;;;;;;;;;;;;;5022592;28;4653;-57
2023/07/11 02:40:31;;;;;;;;;;;;;;;;;;5024856;28;5042;-56
2023/07/11 02:42:56;;;;;;;;;;;;;;;;;;5026100;28;1374;-56
2023/07/11 02:45:21;;;;;;;;;;;;;;;;;;5027710;28;5073;-57
2023/07/11 02:47:47;;;;;;;;;;;;;;;;;;5023388;28;4969;-57
2023/07/11 02:50:12;;;;;;;;;;;;;;;;;;5025793;28;5113;-58
2023/07/11 02:52:37;;;;;;;;;;;;;;;;;;5024486;28;4917;-57
2023/07/11 02:55:03;;;;;;;;;;;;;;;;;;5026587;28;1395;-57
2023/07/11 02:57:28;;;;;;;;;;;;;;;;;;5025206;28;5050;-57
2023/07/11 02:59:53;;;;;;;;;;;;;;;;;;5024774;28;5042;-56
2023/07/11 03:02:18;;;;;;;;;;;;;;;;;;5030344;28;5053;-57
2023/07/11 03:04:44;;;;;;;;;;;;;;;;;;5045390;28;5105;-57
2023/07/11 03:07:09;;;;;;;;;;;;;;;;;;5044175;28;4470;-57
2023/07/11 03:09:34;;;;;;;;;;;;;;;;;;5046434;28;1314;-57
2023/07/11 03:12:00;;;;;;;;;;;;;;;;;;5046558;28;4620;-56
2023/07/11 03:14:26;;;;;;;;;;;;;;;;;;5047098;28;4450;-57
2023/07/11 03:16:51;;;;;;;;;;;;;;;;;;5046641;28;4726;-56
2023/07/11 03:19:18;;;;;;;;;;;;;;;;;;5044784;28;5167;-57
2023/07/11 03:21:43;;;;;;;;;;;;;;;;;;5047547;28;4998;-54
2023/07/11 03:24:10;;;;;;;;;;;;;;;;;;5045104;28;5203;-56
2023/07/11 03:26:35;;;;;;;;;;;;;;;;;;5045962;28;5041;-57
2023/07/11 03:29:00;;;;;;;;;;;;;;;;;;5029637;28;5895;-57
2023/07/11 03:31:25;;;;;;;;;;;;;;;;;;5046097;28;4989;-57
2023/07/11 03:33:51;;;;;;;;;;;;;;;;;;5047012;28;1425;-57
2023/07/11 03:36:16;;;;;;;;;;;;;;;;;;5045094;28;5012;-57
2023/07/11 03:38:41;;;;;;;;;;;;;;;;;;5046973;28;5001;-57
2023/07/11 03:41:06;;;;;;;;;;;;;;;;;;5044961;28;4492;-57
2023/07/11 03:43:32;;;;;;;;;;;;;;;;;;5048421;28;4968;-57
2023/07/11 03:45:57;;;;;;;;;;;;;;;;;;5047068;28;1441;-56
2023/07/11 03:48:22;;;;;;;;;;;;;;;;;;5044486;28;5017;-56
2023/07/11 03:50:47;;;;;;;;;;;;;;;;;;5044552;28;5076;-57
2023/07/11 03:53:13;;;;;;;;;;;;;;;;;;5043377;28;4466;-57
2023/07/11 03:55:38;;;;;;;;;;;;;;;;;;5044303;28;4493;-56
2023/07/11 03:58:03;;;;;;;;;;;;;;;;;;5044803;28;1551;-57
2023/07/11 04:00:28;;;;;;;;;;;;;;;;;;5044831;28;4575;-58
2023/07/11 04:02:54;;;;;;;;;;;;;;;;;;5038117;28;4506;-57
2023/07/11 04:05:19;;;;;;;;;;;;;;;;;;5042095;28;5118;-57
2023/07/11 04:07:44;;;;;;;;;;;;;;;;;;5044277;28;4461;-57
2023/07/11 04:10:12;;;;;;;;;;;;;;;;;;5043354;28;4476;-57
2023/07/11 04:12:37;;;;;;;;;;;;;;;;;;5028376;28;1698;-57
2023/07/11 04:15:03;;;;;;;;;;;;;;;;;;5042457;28;5409;-57
2023/07/11 04:17:28;;;;;;;;;;;;;;;;;;5038909;28;4650;-57
2023/07/11 04:19:53;;;;;;;;;;;;;;;;;;5042328;28;5070;-56
2023/07/11 04:22:19;;;;;;;;;;;;;;;;;;5045569;28;4817;-57
2023/07/11 04:24:44;;;;;;;;;;;;;;;;;;5041148;28;1983;-57
2023/07/11 04:27:10;;;;;;;;;;;;;;;;;;5042264;28;4965;-57
2023/07/11 04:29:36;;;;;;;;;;;;;;;;;;5040421;28;4562;-57
2023/07/11 04:32:01;;;;;;;;;;;;;;;;;;5046856;28;4659;-57
2023/07/11 04:34:27;;;;;;;;;;;;;;;;;;5041365;28;4940;-57
2023/07/11 04:36:52;;;;;;;;;;;;;;;;;;5047465;28;1033;-57
2023/07/11 04:39:17;;;;;;;;;;;;;;;;;;5046348;28;5022;-55
2023/07/11 04:41:43;;;;;;;;;;;;;;;;;;5042842;28;5231;-57
2023/07/11 04:44:08;;;;;;;;;;;;;;;;;;5041381;28;5013;-57
2023/07/11 04:46:33;;;;;;;;;;;;;;;;;;5036462;28;4487;-58
2023/07/11 04:48:58;;;;;;;;;;;;;;;;;;5041055;28;1334;-56
2023/07/11 04:51:24;;;;;;;;;;;;;;;;;;5043174;28;4833;-56
2023/07/11 04:53:49;;;;;;;;;;;;;;;;;;5043556;28;4853;-57
2023/07/11 04:56:14;;;;;;;;;;;;;;;;;;5041976;28;5025;-57
2023/07/11 04:58:39;;;;;;;;;;;;;;;;;;5038206;28;5745;-55
2023/07/11 05:01:08;;;;;;;;;;;;;;;;;;5042846;28;4445;-56
2023/07/11 05:03:34;;;;;;;;;;;;;;;;;;5042388;28;1987;-57
2023/07/11 05:05:59;;;;;;;;;;;;;;;;;;5041534;28;5044;-56
2023/07/11 05:08:24;;;;;;;;;;;;;;;;;;5043218;28;5252;-55
2023/07/11 05:11:01;;;;;;;;;;;;;;;;;;5042886;28;4782;-63
2023/07/11 05:13:26;;;;;;;;;;;;;;;;;;5042633;28;4770;-63
2023/07/11 05:15:57;;;;;;;;;;;;;;;;;;5040389;28;1416;-63
2023/07/11 05:18:22;;;;;;;;;;;;;;;;;;5045643;28;5031;-63
2023/07/11 05:20:52;;;;;;;;;;;;;;;;;;5042802;28;5009;-63
2023/07/11 05:23:17;;;;;;;;;;;;;;;;;;5021851;28;5095;-63
2023/07/11 05:25:42;;;;;;;;;;;;;;;;;;5041280;28;4506;-63
2023/07/11 05:28:07;;;;;;;;;;;;;;;;;;5039980;28;5035;-62
2023/07/11 05:30:36;;;;;;;;;;;;;;;;;;5042719;28;1413;-63
2023/07/11 05:33:02;;;;;;;;;;;;;;;;;;5041165;28;4492;-63
2023/07/11 05:35:27;;;;;;;;;;;;;;;;;;5044353;28;5017;-63
2023/07/11 05:37:52;;;;;;;;;;;;;;;;;;5046693;28;5168;-63
2023/07/11 05:40:17;;;;;;;;;;;;;;;;;;5047197;28;5218;-63
2023/07/11 05:42:43;;;;;;;;;;;;;;;;;;5049245;28;1642;-63
2023/07/11 05:45:08;;;;;;;;;;;;;;;;;;5056754;28;4498;-63
2023/07/11 05:47:33;;;;;;;;;;;;;;;;;;5045175;28;4995;-63
2023/07/11 05:49:59;;;;;;;;;;;;;;;;;;5047167;28;5024;-63
2023/07/11 05:52:24;;;;;;;;;;;;;;;;;;5044885;28;5022;-63
2023/07/11 05:54:49;;;;;;;;;;;;;;;;;;5046200;28;1369;-63
2023/07/11 05:57:14;;;;;;;;;;;;;;;;;;5040865;28;4466;-63
2023/07/11 05:59:40;;;;;;;;;;;;;;;;;;5045009;28;5086;-63
2023/07/11 06:02:05;;;;;;;;;;;;;;;;;;5048047;28;5243;-62
2023/07/11 06:04:31;;;;;;;;;;;;;;;;;;5046196;28;5030;-62
2023/07/11 06:06:56;;;;;;;;;;;;;;;;;;5046494;28;1485;-63
2023/07/11 06:09:21;;;;;;;;;;;;;;;;;;5043607;28;4601;-63
2023/07/11 06:11:47;;;;;;;;;;;;;;;;;;5046230;28;5328;-62
2023/07/11 06:14:12;;;;;;;;;;;;;;;;;;5048842;28;4499;-62
2023/07/11 06:16:38;;;;;;;;;;;;;;;;;;5040956;28;4990;-62
2023/07/11 06:19:04;;;;;;;;;;;;;;;;;;5047795;28;4867;-59
2023/07/11 06:21:29;;;;;;;;;;;;;;;;;;5040452;28;4966;-62
2023/07/11 06:23:54;;;;;;;;;;;;;;;;;;5045995;28;4969;-63
2023/07/11 06:26:20;;;;;;;;;;;;;;;;;;5046826;28;4920;-62
2023/07/11 06:28:45;;;;;;;;;;;;;;;;;;5046959;28;4544;-62
2023/07/11 06:31:10;;;;;;;;;;;;;;;;;;5042766;28;4663;-62
2023/07/11 06:33:36;;;;;;;;;;;;;;;;;;5041783;28;1329;-62
2023/07/11 06:36:02;;;;;;;;;;;;;;;;;;5046609;28;5025;-62
2023/07/11 06:38:27;;;;;;;;;;;;;;;;;;5045716;28;5053;-63
2023/07/11 06:40:54;;;;;;;;;;;;;;;;;;5042675;28;4660;-63
2023/07/11 06:43:20;;;;;;;;;;;;;;;;;;5043880;28;5220;-64
2023/07/11 06:45:46;;;;;;;;;;;;;;;;;;5045464;28;2382;-63
2023/07/11 06:48:12;;;;;;;;;;;;;;;;;;5028864;28;5066;-63
2023/07/11 06:50:37;;;;;;;;;;;;;;;;;;5046162;28;5078;-64
2023/07/11 06:53:02;;;;;;;;;;;;;;;;;;5047471;28;4875;-62
2023/07/11 06:55:27;;;;;;;;;;;;;;;;;;5045799;28;5023;-63
2023/07/11 06:57:53;;;;;;;;;;;;;;;;;;5045309;28;1094;-63
2023/07/11 07:00:18;;;;;;;;;;;;;;;;;;5045716;28;5001;-63
2023/07/11 07:02:44;;;;;;;;;;;;;;;;;;5043898;28;4642;-63
2023/07/11 07:05:09;;;;;;;;;;;;;;;;;;5047053;28;5063;-59
2023/07/11 07:07:35;;;;;;;;;;;;;;;;;;5042028;28;4511;-58
2023/07/11 07:10:00;;;;;;;;;;;;;;;;;;5042049;28;1402;-60
2023/07/11 07:12:25;;;;;;;;;;;;;;;;;;5044965;28;4888;-60
2023/07/11 07:14:50;;;;;;;;;;;;;;;;;;5042275;28;4776;-51
2023/07/11 07:17:16;;;;;;;;;;;;;;;;;;5061663;28;5105;-50
2023/07/11 07:19:41;;;;;;;;;;;;;;;;;;5041892;28;4485;-53
2023/07/11 07:22:06;;;;;;;;;;;;;;;;;;5043582;28;4948;-54
2023/07/11 07:24:32;;;;;;;;;;;;;;;;;;5013758;28;3263;-52
2023/07/11 07:26:57;;;;;;;;;;;;;;;;;;5042244;28;5057;-50
2023/07/11 07:29:23;;;;;;;;;;;;;;;;;;5029199;28;5199;-53
2023/07/11 07:31:49;;;;;;;;;;;;;;;;;;5041967;28;4467;-51
2023/07/11 07:34:14;;;;;;;;;;;;;;;;;;5035553;28;5003;-51
2023/07/11 07:36:39;;;;;;;;;;;;;;;;;;5043611;28;1345;-51
2023/07/11 07:39:04;;;;;;;;;;;;;;;;;;5041591;28;4523;-54
2023/07/11 07:41:29;;;;;;;;;;;;;;;;;;5041915;28;4886;-54
2023/07/11 07:43:55;;;;;;;;;;;;;;;;;;5036123;28;4556;-67
2023/07/11 07:46:20;;;;;;;;;;;;;;;;;;5039404;28;4992;-51
2023/07/11 07:48:45;;;;;;;;;;;;;;;;;;5041141;28;3232;-47
2023/07/11 07:51:11;;;;;;;;;;;;;;;;;;5046006;28;4425;-49
2023/07/11 07:53:37;;;;;;;;;;;;;;;;;;5044960;28;5035;-48
2023/07/11 07:56:03;;;;;;;;;;;;;;;;;;5026013;28;4509;-50
2023/07/11 07:58:28;;;;;;;;;;;;;;;;;;5045323;28;4479;-48
2023/07/11 08:00:53;;;;;;;;;;;;;;;;;;5044733;28;1291;-48
2023/07/11 08:03:19;;;;;;;;;;;;;;;;;;5044073;28;5034;-48
2023/07/11 08:05:44;;;;;;;;;;;;;;;;;;5044710;28;4907;-49
2023/07/11 08:08:09;;;;;;;;;;;;;;;;;;5041888;28;4997;-49
2023/07/11 08:10:35;;;;;;;;;;;;;;;;;;5043211;28;4896;-47
2023/07/11 08:13:00;;;;;;;;;;;;;;;;;;5042597;28;1811;-46
2023/07/11 08:15:25;;;;;;;;;;;;;;;;;;5041515;28;4997;-51
2023/07/11 08:17:50;;;;;;;;;;;;;;;;;;5042214;28;5159;-47
2023/07/11 08:20:15;;;;;;;;;;;;;;;;;;5045126;28;4957;-50
2023/07/11 08:22:41;;;;;;;;;;;;;;;;;;5043884;28;5145;-48
2023/07/11 08:25:07;;;;;;;;;;;;;;;;;;5043066;28;5067;-46
2023/07/11 08:27:32;;;;;;;;;;;;;;;;;;5045001;28;1469;-51
2023/07/11 08:29:57;;;;;;;;;;;;;;;;;;5044401;28;5243;-50
2023/07/11 08:32:23;;;;;;;;;;;;;;;;;;5042983;28;4466;-51
2023/07/11 08:34:48;;;;;;;;;;;;;;;;;;5063297;28;4872;-47
2023/07/11 08:37:13;;;;;;;;;;;;;;;;;;5044551;28;5099;-49
2023/07/11 08:39:39;;;;;;;;;;;;;;;;;;5044787;28;1334;-48
2023/07/11 08:42:06;;;;;;;;;;;;;;;;;;5043077;28;5239;-48
2023/07/11 08:44:35;;;;;;;;;;;;;;;;;;5042644;28;4428;-47
2023/07/11 08:47:05;;;;;;;;;;;;;;;;;;5045661;28;4509;-50
2023/07/11 08:49:46;;;;;;;;;;;;;;;;;;5053184;28;5155;-54
2023/07/11 08:52:11;;;;;;;;;;;;;;;;;;5054441;28;5084;-50
2023/07/11 08:54:40;;;;;;;;;;;;;;;;;;5058468;28;1681;-45
2023/07/11 08:57:07;;;;;;;;;;;;;;;;;;5059488;28;4609;-52
2023/07/11 08:59:55;;;;;;;;;;;;;;;;;;5044651;28;4653;-49
2023/07/11 09:02:32;;;;;;;;;;;;;;;;;;5043824;28;5009;-46
2023/07/11 09:04:58;;;;;;;;;;;;;;;;;;5044321;28;4520;-49
2023/07/11 09:07:23;;;;;;;;;;;;;;;;;;5023265;28;5038;-50
2023/07/11 09:09:48;;;;;;;;;;;;;;;;;;5049782;28;1197;-51
2023/07/11 09:12:34;;;;;;;;;;;;;;;;;;5046926;28;5213;-47
2023/07/11 09:15:19;;;;;;;;;;;;;;;;;;5058599;28;5754;-50
2023/07/11 09:17:45;;;;;;;;;;;;;;;;;;5027481;28;5362;-51
2023/07/11 09:20:16;;;;;;;;;;;;;;;;;;5047107;28;5085;-47
2023/07/11 09:22:56;;;;;;;;;;;;;;;;;;5044531;28;5141;-50
2023/07/11 09:25:24;;;;;;;;;;;;;;;;;;5044048;28;5548;-46
2023/07/11 09:27:51;;;;;;;;;;;;;;;;;;5063247;28;3335;-47
2023/07/11 09:30:33;;;;;;;;;;;;;;;;;;5059654;28;4439;-49
2023/07/11 09:33:19;;;;;;;;;;;;;;;;;;5062070;28;5400;-48
2023/07/11 09:35:44;;;;;;;;;;;;;;;;;;5046247;28;5040;-48
2023/07/11 09:38:19;;;;;;;;;;;;;;;;;;5046956;28;5042;-49
2023/07/11 09:40:45;;;;;;;;;;;;;;;;;;5043714;28;5171;-51
2023/07/11 09:43:10;;;;;;;;;;;;;;;;;;5059830;28;5064;-49
2023/07/11 09:45:37;;;;;;;;;;;;;;;;;;5047954;28;1979;-49
2023/07/11 09:48:05;;;;;;;;;;;;;;;;;;5043871;28;5090;-49
2023/07/11 09:50:34;;;;;;;;;;;;;;;;;;5047003;28;4961;-51
2023/07/11 09:53:00;;;;;;;;;;;;;;;;;;5027018;28;5068;-50
2023/07/11 09:55:30;;;;;;;;;;;;;;;;;;5061504;28;5025;-53
2023/07/11 09:57:55;;;;;;;;;;;;;;;;;;5048442;28;3064;-49
2023/07/11 10:00:21;;;;;;;;;;;;;;;;;;5046528;28;4922;-51
2023/07/11 10:02:46;;;;;;;;;;;;;;;;;;5047302;28;5044;-48
2023/07/11 10:05:17;;;;;;;;;;;;;;;;;;5046053;28;4655;-50
2023/07/11 10:07:43;;;;;;;;;;;;;;;;;;5047550;28;5190;-51
2023/07/11 10:10:13;;;;;;;;;;;;;;;;;;5058290;28;5239;-51
2023/07/11 10:12:38;;;;;;;;;;;;;;;;;;5062693;28;1512;-49
2023/07/11 10:15:06;;;;;;;;;;;;;;;;;;5027592;28;4673;-48
2023/07/11 10:17:32;;;;;;;;;;;;;;;;;;5044421;28;5403;-46
2023/07/11 10:19:59;;;;;;;;;;;;;;;;;;5047801;28;4712;-47
2023/07/11 10:22:28;;;;;;;;;;;;;;;;;;5046473;28;5287;-49
2023/07/11 10:25:06;;;;;;;;;;;;;;;;;;5047443;28;1910;-47
2023/07/11 10:27:31;;;;;;;;;;;;;;;;;;5027538;28;5032;-52
2023/07/11 10:29:57;;;;;;;;;;;;;;;;;;5040078;28;5066;-50
2023/07/11 10:32:28;;;;;;;;;;;;;;;;;;5017022;28;6188;-49
2023/07/11 10:34:55;;;;;;;;;;;;;;;;;;5045229;28;5069;-50
2023/07/11 10:37:28;;;;;;;;;;;;;;;;;;5023135;28;5128;-52
2023/07/11 10:39:55;;;;;;;;;;;;;;;;;;4999029;28;1402;-52
2023/07/11 10:42:20;;;;;;;;;;;;;;;;;;5009088;28;5070;-49
2023/07/11 10:44:46;;;;;;;;;;;;;;;;;;5024276;28;4976;-51
2023/07/11 10:47:11;;;;;;;;;;;;;;;;;;5050462;28;4658;-49
2023/07/11 10:49:47;;;;;;;;;;;;;;;;;;5058998;28;5134;-48
2023/07/11 10:52:19;;;;;;;;;;;;;;;;;;5027812;28;5037;-49
2023/07/11 10:54:49;;;;;;;;;;;;;;;;;;5043701;28;3313;-50
2023/07/11 10:57:16;;;;;;;;;;;;;;;;;;5027698;28;4988;-49
2023/07/11 10:59:41;;;;;;;;;;;;;;;;;;5058992;28;5158;-47
2023/07/11 11:02:17;;;;;;;;;;;;;;;;;;5057000;28;4592;-51
2023/07/11 11:05:02;;;;;;;;;;;;;;;;;;5043787;28;4763;-51
2023/07/11 11:07:34;;;;;;;;;;;;;;;;;;5037770;28;5013;-51
2023/07/11 11:10:10;;;;;;;;;;;;;;;;;;5010371;28;1338;-48
2023/07/11 11:12:47;;;;;;;;;;;;;;;;;;5057520;28;5972;-61
2023/07/11 11:15:12;;;;;;;;;;;;;;;;;;5055863;28;4500;-49
2023/07/11 11:17:53;;;;;;;;;;;;;;;;;;5031698;28;5125;-51
2023/07/11 11:20:24;;;;;;;;;;;;;;;;;;5019697;28;4489;-50
2023/07/11 11:23:05;;;;;;;;;;;;;;;;;;5000082;28;5068;-49
2023/07/11 11:25:45;;;;;;;;;;;;;;;;;;5039114;28;4589;-48
2023/07/11 11:28:21;;;;;;;;;;;;;;;;;;5006393;28;4555;-48
2023/07/11 11:30:49;;;;;;;;;;;;;;;;;;5022895;28;3359;-48
2023/07/11 11:33:17;;;;;;;;;;;;;;;;;;5052355;28;4616;-49
2023/07/11 11:35:42;;;;;;;;;;;;;;;;;;5028528;28;4469;-48
2023/07/11 11:38:20;;;;;;;;;;;;;;;;;;5029824;28;5034;-58
2023/07/11 11:40:49;;;;;;;;;;;;;;;;;;5030970;28;5013;-72
2023/07/11 11:43:14;;;;;;;;;;;;;;;;;;5022874;28;5014;-70
2023/07/11 11:45:40;;;;;;;;;;;;;;;;;;5041026;28;3309;-71
2023/07/11 11:48:05;;;;;;;;;;;;;;;;;;5042117;28;4962;-73
2023/07/11 11:50:31;;;;;;;;;;;;;;;;;;5042247;28;5279;-71
2023/07/11 11:52:57;;;;;;;;;;;;;;;;;;5036124;28;4984;-73
2023/07/11 11:55:34;;;;;;;;;;;;;;;;;;5038380;28;5000;-75
2023/07/11 11:57:59;;;;;;;;;;;;;;;;;;5023685;28;1148;-75
2023/07/11 12:00:31;;;;;;;;;;;;;;;;;;5023429;28;5015;-73
2023/07/11 12:02:56;;;;;;;;;;;;;;;;;;5021343;28;4710;-74
2023/07/11 12:05:21;;;;;;;;;;;;;;;;;;5023394;28;4690;-75
2023/07/11 12:08:06;;;;;;;;;;;;;;;;;;5024774;28;5102;-75
2023/07/11 12:10:32;;;;;;;;;;;;;;;;;;5020564;28;4476;-74
2023/07/11 12:13:20;;;;;;;;;;;;;;;;;;5021909;28;1370;-72
2023/07/11 12:15:46;;;;;;;;;;;;;;;;;;5004556;28;5019;-72
2023/07/11 12:18:23;;;;;;;;;;;;;;;;;;5020335;28;4470;-72
2023/07/11 12:21:09;;;;;;;;;;;;;;;;;;5053771;28;4916;-58
2023/07/11 12:23:34;;;;;;;;;;;;;;;;;;5002290;28;4721;-57
2023/07/11 12:26:10;;;;;;;;;;;;;;;;;;5027632;28;5204;-56
2023/07/11 12:28:35;;;;;;;;;;;;;;;;;;5043140;28;4555;-56
2023/07/11 12:31:04;;;;;;;;;;;;;;;;;;5042500;28;1616;-56
2023/07/11 12:33:30;;;;;;;;;;;;;;;;;;5042251;28;6341;-56
2023/07/11 12:36:14;;;;;;;;;;;;;;;;;;5042558;28;4872;-55
2023/07/11 12:38:46;;;;;;;;;;;;;;;;;;5044722;28;5075;-56
2023/07/11 12:41:34;;;;;;;;;;;;;;;;;;5028149;28;5021;-56
2023/07/11 12:44:01;;;;;;;;;;;;;;;;;;5030787;28;5166;-69
2023/07/11 12:46:31;;;;;;;;;;;;;;;;;;5043696;28;4653;-57
2023/07/11 12:48:57;;;;;;;;;;;;;;;;;;5044484;28;2619;-63
2023/07/11 12:51:24;;;;;;;;;;;;;;;;;;5026812;28;4684;-55
2023/07/11 12:53:56;;;;;;;;;;;;;;;;;;5031878;28;5106;-64
2023/07/11 12:56:21;;;;;;;;;;;;;;;;;;5007272;28;5161;-74
2023/07/11 12:58:46;;;;;;;;;;;;;;;;;;5025680;28;5209;-64
2023/07/11 13:01:14;;;;;;;;;;;;;;;;;;5008535;28;4771;-67
2023/07/11 13:03:39;;;;;;;;;;;;;;;;;;5041998;28;1396;-66
2023/07/11 13:06:07;;;;;;;;;;;;;;;;;;5039234;28;5061;-66
2023/07/11 13:08:33;;;;;;;;;;;;;;;;;;5034479;28;5214;-71
2023/07/11 13:11:00;;;;;;;;;;;;;;;;;;5041749;28;5055;-68
2023/07/11 13:13:25;;;;;;;;;;;;;;;;;;5045322;28;4732;-66
2023/07/11 13:15:51;;;;;;;;;;;;;;;;;;5042285;28;1512;-68
2023/07/11 13:18:22;;;;;;;;;;;;;;;;;;5044976;28;4518;-62
2023/07/11 13:20:47;;;;;;;;;;;;;;;;;;5041220;28;4390;-63
2023/07/11 13:23:12;;;;;;;;;;;;;;;;;;5044879;28;5091;-63
2023/07/11 13:25:37;;;;;;;;;;;;;;;;;;5055879;28;4766;-65
2023/07/11 13:28:03;;;;;;;;;;;;;;;;;;5023845;28;1670;-59
2023/07/11 13:30:35;;;;;;;;;;;;;;;;;;5021524;28;4723;-72
2023/07/11 13:33:00;;;;;;;;;;;;;;;;;;5042240;28;4650;-70
2023/07/11 13:35:26;;;;;;;;;;;;;;;;;;5023556;28;5066;-69
2023/07/11 13:37:51;;;;;;;;;;;;;;;;;;5030704;28;5111;-67
2023/07/11 13:40:31;;;;;;;;;;;;;;;;;;5024298;28;5134;-66
2023/07/11 13:42:57;;;;;;;;;;;;;;;;;;5022665;28;1393;-66
2023/07/11 13:45:22;;;;;;;;;;;;;;;;;;5020458;28;4974;-66
2023/07/11 13:47:49;;;;;;;;;;;;;;;;;;5021063;28;4799;-68
2023/07/11 13:50:18;;;;;;;;;;;;;;;;;;5023292;28;4857;-65
2023/07/11 13:52:48;;;;;;;;;;;;;;;;;;5024592;28;5142;-64
2023/07/11 13:55:15;;;;;;;;;;;;;;;;;;5027505;28;5218;-67
2023/07/11 13:57:40;;;;;;;;;;;;;;;;;;5029796;28;1373;-64
2023/07/11 14:00:06;;;;;;;;;;;;;;;;;;5029345;28;5093;-65
2023/07/11 14:02:33;;;;;;;;;;;;;;;;;;5029817;28;4492;-66
2023/07/11 14:04:58;;;;;;;;;;;;;;;;;;5027563;28;5366;-65
2023/07/11 14:07:24;;;;;;;;;;;;;;;;;;5023971;28;5326;-64
2023/07/11 14:09:50;;;;;;;;;;;;;;;;;;5044115;28;1835;-64
2023/07/11 14:12:15;;;;;;;;;;;;;;;;;;5042073;28;4611;-62
2023/07/11 14:14:40;;;;;;;;;;;;;;;;;;5041553;28;4671;-61
2023/07/11 14:17:08;;;;;;;;;;;;;;;;;;5042063;28;5081;-62
2023/07/11 14:19:33;;;;;;;;;;;;;;;;;;5057283;28;5014;-66
2023/07/11 14:21:59;;;;;;;;;;;;;;;;;;5042703;28;4896;-65
2023/07/11 14:24:24;;;;;;;;;;;;;;;;;;5044952;28;5018;-65
2023/07/11 14:26:50;;;;;;;;;;;;;;;;;;5037712;28;4839;-66
2023/07/11 14:29:25;;;;;;;;;;;;;;;;;;5043826;28;5019;-67
2023/07/11 14:31:50;;;;;;;;;;;;;;;;;;5040991;28;5162;-65
2023/07/11 14:34:18;;;;;;;;;;;;;;;;;;5027856;28;4682;-66
2023/07/11 14:36:43;;;;;;;;;;;;;;;;;;5044211;28;1449;-66
2023/07/11 14:39:09;;;;;;;;;;;;;;;;;;5048291;28;4710;-66
2023/07/11 14:41:34;;;;;;;;;;;;;;;;;;5042006;28;4902;-67
2023/07/11 14:43:59;;;;;;;;;;;;;;;;;;5044646;28;4995;-67
2023/07/11 14:46:24;;;;;;;;;;;;;;;;;;5043025;28;5000;-66
2023/07/11 14:48:50;;;;;;;;;;;;;;;;;;5045036;28;1560;-66
2023/07/11 14:51:15;;;;;;;;;;;;;;;;;;5025703;28;4670;-67
2023/07/11 14:53:42;;;;;;;;;;;;;;;;;;5026193;28;5117;-67
2023/07/11 14:56:14;;;;;;;;;;;;;;;;;;5015143;28;4480;-66
2023/07/11 14:58:44;;;;;;;;;;;;;;;;;;5044751;28;4489;-67
2023/07/11 15:01:10;;;;;;;;;;;;;;;;;;5045358;28;5164;-67
2023/07/11 15:03:35;;;;;;;;;;;;;;;;;;5027382;28;1389;-67
2023/07/11 15:06:00;;;;;;;;;;;;;;;;;;5024972;28;5136;-67
2023/07/11 15:08:26;;;;;;;;;;;;;;;;;;5025901;28;5014;-70
2023/07/11 15:11:01;;;;;;;;;;;;;;;;;;5026670;28;5102;-68
2023/07/11 15:13:28;;;;;;;;;;;;;;;;;;5021495;28;4990;-69
2023/07/11 15:15:53;;;;;;;;;;;;;;;;;;5021447;28;1511;-70
2023/07/11 15:18:20;;;;;;;;;;;;;;;;;;5025268;28;4470;-71
2023/07/11 15:20:45;;;;;;;;;;;;;;;;;;5026784;28;5045;-70
2023/07/11 15:23:13;;;;;;;;;;;;;;;;;;5010802;28;4992;-70
2023/07/11 15:25:38;;;;;;;;;;;;;;;;;;5025047;28;5334;-69
2023/07/11 15:28:19;;;;;;;;;;;;;;;;;;5027740;28;1525;-69
2023/07/11 15:30:45;;;;;;;;;;;;;;;;;;5023123;28;4603;-71
2023/07/11 15:33:30;;;;;;;;;;;;;;;;;;5024333;28;4725;-69
2023/07/11 15:35:55;;;;;;;;;;;;;;;;;;5042728;28;4908;-72
2023/07/11 15:38:21;;;;;;;;;;;;;;;;;;5025590;28;4456;-61
2023/07/11 15:40:46;;;;;;;;;;;;;;;;;;5025488;28;5067;-71
2023/07/11 15:43:15;;;;;;;;;;;;;;;;;;5023299;28;5144;-64
2023/07/11 15:45:40;;;;;;;;;;;;;;;;;;5026100;28;1938;-65
2023/07/11 15:48:08;;;;;;;;;;;;;;;;;;5041153;28;4928;-65
2023/07/11 15:50:33;;;;;;;;;;;;;;;;;;5044977;28;4536;-65
2023/07/11 15:52:59;;;;;;;;;;;;;;;;;;5045035;28;4452;-65
2023/07/11 15:55:25;;;;;;;;;;;;;;;;;;5026480;28;4974;-65
2023/07/11 15:57:50;;;;;;;;;;;;;;;;;;5047332;28;1417;-65
2023/07/11 16:00:16;;;;;;;;;;;;;;;;;;5041580;28;5023;-65
2023/07/11 16:02:41;;;;;;;;;;;;;;;;;;5021036;28;5022;-65
2023/07/11 16:05:08;;;;;;;;;;;;;;;;;;5026530;28;5311;-66
2023/07/11 16:07:33;;;;;;;;;;;;;;;;;;5029929;28;4989;-65
2023/07/11 16:09:58;;;;;;;;;;;;;;;;;;5043183;28;1091;-65
2023/07/11 16:12:24;;;;;;;;;;;;;;;;;;5043962;28;5147;-64
2023/07/11 16:14:49;;;;;;;;;;;;;;;;;;5039380;28;5062;-65
2023/07/11 16:17:18;;;;;;;;;;;;;;;;;;5041953;28;5115;-65
2023/07/11 16:19:47;;;;;;;;;;;;;;;;;;5059265;28;4756;-65
2023/07/11 16:22:15;;;;;;;;;;;;;;;;;;5044005;28;4954;-65
2023/07/11 16:24:40;;;;;;;;;;;;;;;;;;5043927;28;1985;-65
2023/07/11 16:27:07;;;;;;;;;;;;;;;;;;5060760;28;5113;-64
2023/07/11 16:29:32;;;;;;;;;;;;;;;;;;5022730;28;4795;-65
2023/07/11 16:31:58;;;;;;;;;;;;;;;;;;5036910;28;4488;-64
2023/07/11 16:34:24;;;;;;;;;;;;;;;;;;5041215;28;5912;-65
2023/07/11 16:36:50;;;;;;;;;;;;;;;;;;5044642;28;1365;-65
2023/07/11 16:39:19;;;;;;;;;;;;;;;;;;5056231;28;5006;-65
2023/07/11 16:41:45;;;;;;;;;;;;;;;;;;5044185;28;5027;-65
2023/07/11 16:44:10;;;;;;;;;;;;;;;;;;5046885;28;4611;-65
2023/07/11 16:46:35;;;;;;;;;;;;;;;;;;5043040;28;5029;-65
2023/07/11 16:49:01;;;;;;;;;;;;;;;;;;5044911;28;1480;-65
2023/07/11 16:51:26;;;;;;;;;;;;;;;;;;5058458;28;4470;-65
2023/07/11 16:53:53;;;;;;;;;;;;;;;;;;5043837;28;4602;-65
2023/07/11 16:56:18;;;;;;;;;;;;;;;;;;5040618;28;5211;-65
2023/07/11 16:58:43;;;;;;;;;;;;;;;;;;5026590;28;5660;-65
2023/07/11 17:01:13;;;;;;;;;;;;;;;;;;5041396;28;4463;-63